Time;durP1;ratioP1;P1;durP2;ratioP2;P2;SDS_P1;SDS_P2;PMS_P1;PMS_P2;Temp;Humidity;BMP_temperature;BMP_pressure;BME280_temperature;BME280_humidity;BME280_pressure;Samples;Min_cycle;Max_cycle;Signal;HPM_P1;HPM_P2
2021/05/01 00:01:27;;;;;;;40.60;23.73;;;;;;;7.88;61.45;99848.34;5123853;27;20493;-71
2021/05/01 00:03:53;;;;;;;48.38;27.52;;;;;;;7.84;61.30;99838.03;5125921;27;20075;-72
2021/05/01 00:06:20;;;;;;;45.42;26.33;;;;;;;7.83;61.55;99844.25;5127143;28;20047;-70
2021/05/01 00:08:46;;;;;;;42.47;26.35;;;;;;;7.81;61.51;99848.78;5124093;28;20052;-71
2021/05/01 00:11:12;;;;;;;49.63;28.58;;;;;;;7.83;61.45;99857.41;5125766;27;20084;-71
2021/05/01 00:13:39;;;;;;;42.30;28.30;;;;;;;7.93;61.23;99862.03;5123613;27;20047;-72
2021/05/01 00:16:06;;;;;;;44.25;27.50;;;;;;;8.03;61.07;99861.28;5123292;27;20651;-72
2021/05/01 00:18:34;;;;;;;40.80;25.98;;;;;;;8.15;61.26;99854.34;5124700;27;20043;-70
2021/05/01 00:21:02;;;;;;;42.05;29.65;;;;;;;8.31;60.73;99858.56;5124801;27;20116;-70
2021/05/01 00:23:28;;;;;;;53.53;33.63;;;;;;;8.44;60.47;99854.13;5123827;27;20047;-71
2021/05/01 00:25:54;;;;;;;59.13;32.40;;;;;;;8.52;60.57;99857.09;5124663;27;20054;-70
2021/05/01 00:28:21;;;;;;;58.35;34.20;;;;;;;8.61;60.31;99848.53;5125595;28;20437;-70
2021/05/01 00:30:48;;;;;;;55.45;31.58;;;;;;;8.73;60.18;99836.31;5124394;28;20100;-71
2021/05/01 00:33:14;;;;;;;53.40;33.85;;;;;;;8.80;60.10;99823.53;5125357;27;20049;-73
2021/05/01 00:35:43;;;;;;;56.03;35.42;;;;;;;8.78;60.16;99833.31;5125603;27;20700;-70
2021/05/01 00:38:10;;;;;;;57.78;36.78;;;;;;;8.78;60.42;99833.31;5128724;27;20426;-71
2021/05/01 00:40:36;;;;;;;53.63;34.20;;;;;;;8.78;60.40;99831.53;5128790;27;20119;-72
2021/05/01 00:43:03;;;;;;;43.70;30.92;;;;;;;8.77;60.64;99834.28;5128461;27;20053;-71
2021/05/01 00:45:29;;;;;;;51.22;34.63;;;;;;;8.77;60.81;99843.03;5126457;27;20432;-71
2021/05/01 00:47:56;;;;;;;52.78;33.88;;;;;;;8.78;61.14;99843.84;5129228;27;20051;-70
2021/05/01 00:50:22;;;;;;;49.67;32.83;;;;;;;8.81;61.18;99854.19;5128481;27;20047;-70
2021/05/01 00:52:50;;;;;;;48.40;32.95;;;;;;;8.81;61.37;99851.56;5128853;27;20130;-70
2021/05/01 00:55:16;;;;;;;46.90;29.17;;;;;;;8.87;61.19;99855.53;5128620;27;20050;-70
2021/05/01 00:57:43;;;;;;;43.65;30.33;;;;;;;8.91;61.15;99862.25;5128165;27;20050;-71
2021/05/01 01:00:21;;;;;;;52.80;34.45;;;;;;;8.92;61.09;99872.69;5128997;27;20043;-71
2021/05/01 01:02:48;;;;;;;48.47;32.50;;;;;;;8.90;61.30;99868.50;5127944;27;20057;-70
2021/05/01 01:05:14;;;;;;;52.70;37.92;;;;;;;8.88;61.14;99868.59;5127512;27;20088;-70
2021/05/01 01:07:41;;;;;;;49.08;32.90;;;;;;;8.92;60.97;99869.22;5127912;27;20051;-69
2021/05/01 01:10:09;;;;;;;45.17;30.60;;;;;;;8.99;60.85;99873.09;5128310;27;20043;-70
2021/05/01 01:12:36;;;;;;;53.40;36.72;;;;;;;9.10;60.56;99882.84;5127776;27;20043;-69
2021/05/01 01:15:03;;;;;;;51.97;33.33;;;;;;;9.15;60.30;99892.09;5127344;27;20542;-70
2021/05/01 01:17:29;;;;;;;51.10;32.28;;;;;;;9.22;60.19;99892.50;5129142;27;20050;-70
2021/05/01 01:19:55;;;;;;;49.55;34.53;;;;;;;9.20;60.20;99883.88;5128342;27;20084;-70
2021/05/01 01:22:23;;;;;;;45.42;31.88;;;;;;;9.17;60.47;99873.56;5128429;27;20059;-69
2021/05/01 01:24:49;;;;;;;47.35;30.52;;;;;;;9.15;60.43;99875.47;5129031;27;20469;-70
2021/05/01 01:27:16;;;;;;;39.15;27.85;;;;;;;9.17;60.33;99877.03;5127390;27;20050;-70
2021/05/01 01:29:45;;;;;;;40.58;27.65;;;;;;;9.22;60.21;99876.69;5132518;27;20043;-70
2021/05/01 01:32:13;;;;;;;41.58;27.50;;;;;;;9.24;60.44;99873.94;5130773;27;20134;-71
2021/05/01 01:34:42;;;;;;;42.97;29.20;;;;;;;9.26;60.33;99872.88;5135895;27;20027;-70
2021/05/01 01:37:08;;;;;;;42.20;29.10;;;;;;;9.22;60.51;99874.06;5129925;27;20051;-71
2021/05/01 01:39:36;;;;;;;41.65;30.58;;;;;;;9.16;60.75;99869.22;5130452;27;20054;-70
2021/05/01 01:42:02;;;;;;;41.95;28.80;;;;;;;9.13;60.93;99867.66;5138799;27;20054;-70
2021/05/01 01:44:28;;;;;;;40.67;27.52;;;;;;;9.14;60.97;99868.50;5133034;27;20040;-71
2021/05/01 01:46:55;;;;;;;42.63;27.85;;;;;;;9.16;60.92;99875.34;5138339;27;20030;-70
2021/05/01 01:49:21;;;;;;;42.50;28.70;;;;;;;9.15;60.94;99867.56;5140421;27;20035;-70
2021/05/01 01:51:48;;;;;;;38.75;27.33;;;;;;;9.15;60.94;99875.47;5139999;27;20093;-70
2021/05/01 01:54:14;;;;;;;42.90;27.45;;;;;;;9.16;61.15;99871.84;5138510;27;20039;-70
2021/05/01 01:56:41;;;;;;;40.20;27.50;;;;;;;9.19;61.04;99883.00;5140153;27;20047;-70
2021/05/01 01:59:08;;;;;;;39.13;26.50;;;;;;;9.24;60.85;99900.28;5139955;27;20055;-70
2021/05/01 02:01:35;;;;;;;42.10;28.20;;;;;;;9.26;60.78;99890.50;5136716;27;20513;-69
2021/05/01 02:04:01;;;;;;;42.38;29.00;;;;;;;9.27;60.69;99889.53;5130983;27;20061;-69
2021/05/01 02:06:28;;;;;;;41.00;27.05;;;;;;;9.25;60.50;99881.72;5130352;27;20043;-70
2021/05/01 02:08:54;;;;;;;39.05;26.02;;;;;;;9.25;60.79;99873.81;5131568;27;20047;-70
2021/05/01 02:11:20;;;;;;;38.05;26.20;;;;;;;9.35;60.70;99877.47;5131223;27;20055;-68
2021/05/01 02:13:48;;;;;;;39.53;25.98;;;;;;;9.44;60.41;99870.69;5129062;27;20410;-70
2021/05/01 02:16:14;;;;;;;39.75;23.98;;;;;;;9.51;60.33;99865.81;5133180;27;20401;-71
2021/05/01 02:18:41;;;;;;;37.10;23.17;;;;;;;9.57;60.05;99855.63;5131914;27;20063;-69
2021/05/01 02:21:07;;;;;;;38.75;24.95;;;;;;;9.61;59.84;99856.25;5128873;27;20054;-70
2021/05/01 02:23:33;;;;;;;39.85;23.33;;;;;;;9.58;59.94;99867.03;5129140;27;20070;-69
2021/05/01 02:26:00;;;;;;;43.20;26.02;;;;;;;9.59;60.08;99855.50;5131485;27;20046;-70
2021/05/01 02:28:26;;;;;;;35.42;25.27;;;;;;;9.65;60.00;99860.34;5128549;27;20073;-69
2021/05/01 02:30:54;;;;;;;38.08;26.08;;;;;;;9.71;59.91;99865.16;5128371;27;20056;-71
2021/05/01 02:33:20;;;;;;;43.55;29.80;;;;;;;9.72;59.87;99874.75;5128180;27;20047;-69
2021/05/01 02:35:47;;;;;;;42.10;27.02;;;;;;;9.62;60.22;99884.31;5128587;27;20054;-70
2021/05/01 02:38:13;;;;;;;39.65;25.70;;;;;;;9.56;60.38;99885.59;5127317;27;20039;-70
2021/05/01 02:40:39;;;;;;;35.75;26.88;;;;;;;9.62;60.19;99872.91;5128020;27;20104;-70
2021/05/01 02:43:09;;;;;;;45.95;28.75;;;;;;;9.60;60.13;99849.31;5127538;27;20046;-71
2021/05/01 02:45:36;;;;;;;43.08;29.65;;;;;;;9.52;60.30;99844.56;5126133;27;20122;-71
2021/05/01 02:48:04;;;;;;;43.47;28.63;;;;;;;9.48;60.53;99840.50;5127748;27;20439;-70
2021/05/01 02:50:31;;;;;;;43.88;26.65;;;;;;;9.51;60.38;99847.34;5127245;27;20401;-70
2021/05/01 02:52:58;;;;;;;36.45;23.48;;;;;;;9.58;60.37;99835.41;5127310;27;20051;-70
2021/05/01 02:55:24;;;;;;;36.08;23.58;;;;;;;9.54;60.45;99826.88;5127878;27;20047;-70
2021/05/01 02:57:51;;;;;;;35.35;23.10;;;;;;;9.52;60.64;99831.41;5127192;27;20047;-70
2021/05/01 03:00:21;;;;;;;37.50;23.48;;;;;;;9.53;60.54;99837.53;5126442;27;20110;-69
2021/05/01 03:02:47;;;;;;;35.67;22.52;;;;;;;9.51;60.59;99839.44;5127612;27;20069;-70
2021/05/01 03:05:15;;;;;;;31.50;21.00;;;;;;;9.52;60.79;99828.75;5126562;27;20072;-71
2021/05/01 03:07:42;;;;;;;36.38;24.33;;;;;;;9.54;60.69;99820.75;5126413;27;20043;-71
2021/05/01 03:10:11;;;;;;;36.55;23.50;;;;;;;9.57;60.71;99823.16;5126902;27;20050;-71
2021/05/01 03:12:38;;;;;;;32.83;23.10;;;;;;;9.56;60.69;99816.19;5126877;27;20035;-71
2021/05/01 03:15:06;;;;;;;35.58;22.65;;;;;;;9.57;60.79;99820.53;5125578;27;20134;-70
2021/05/01 03:17:33;;;;;;;37.53;23.48;;;;;;;9.62;60.49;99831.56;5128453;27;20054;-69
2021/05/01 03:19:59;;;;;;;38.63;22.42;;;;;;;9.59;60.58;99830.94;5126496;27;20043;-71
2021/05/01 03:22:26;;;;;;;38.38;24.27;;;;;;;9.53;60.83;99830.44;5127561;27;20047;-69
2021/05/01 03:24:53;;;;;;;33.15;22.35;;;;;;;9.50;60.99;99829.84;5126177;27;20047;-70
2021/05/01 03:27:20;;;;;;;31.40;21.65;;;;;;;9.50;60.92;99817.50;5125381;27;20133;-71
2021/05/01 03:29:46;;;;;;;36.20;23.95;;;;;;;9.50;60.94;99803.47;5127063;27;20050;-70
2021/05/01 03:32:13;;;;;;;40.25;25.58;;;;;;;9.46;60.98;99804.69;5126023;27;20038;-72
2021/05/01 03:34:39;;;;;;;34.78;23.20;;;;;;;9.34;61.25;99796.72;5125259;27;20735;-71
2021/05/01 03:37:05;;;;;;;39.45;26.10;;;;;;;9.30;61.40;99799.69;5127659;27;20051;-71
2021/05/01 03:39:33;;;;;;;39.95;25.70;;;;;;;9.16;61.90;99804.22;5126759;27;20164;-70
2021/05/01 03:42:00;;;;;;;42.25;27.45;;;;;;;9.24;61.58;99811.53;5125394;27;20065;-71
2021/05/01 03:44:27;;;;;;;41.80;25.77;;;;;;;9.32;61.37;99830.25;5124511;27;20248;-71
2021/05/01 03:46:53;;;;;;;45.70;26.58;;;;;;;9.47;60.95;99832.69;5126670;28;20131;-70
2021/05/01 03:49:20;;;;;;;40.60;28.98;;;;;;;9.58;60.62;99845.94;5125236;27;20047;-70
2021/05/01 03:51:46;;;;;;;44.97;31.15;;;;;;;9.58;60.73;99851.22;5127044;28;20104;-71
2021/05/01 03:54:13;;;;;;;38.60;25.10;;;;;;;9.56;60.95;99853.97;5125534;28;20059;-72
2021/05/01 03:56:40;;;;;;;35.42;23.98;;;;;;;9.56;60.73;99843.41;5125415;27;20039;-72
2021/05/01 03:59:07;;;;;;;38.80;25.52;;;;;;;9.55;60.56;99830.34;5127118;28;20056;-71
2021/05/01 04:01:33;;;;;;;33.83;22.77;;;;;;;9.50;60.76;99837.75;5125860;27;20043;-71
2021/05/01 04:04:00;;;;;;;35.08;24.10;;;;;;;9.56;60.62;99839.91;5126123;27;20039;-71
2021/05/01 04:06:26;;;;;;;36.63;24.77;;;;;;;9.56;60.47;99834.66;5126728;28;20047;-72
2021/05/01 04:08:52;;;;;;;37.72;26.42;;;;;;;9.51;60.69;99828.91;5125879;27;20068;-72
2021/05/01 04:11:19;;;;;;;41.10;26.00;;;;;;;9.50;60.70;99832.47;5127918;27;20046;-70
2021/05/01 04:13:47;;;;;;;39.47;24.27;;;;;;;9.45;61.04;99829.34;5128807;27;20050;-70
2021/05/01 04:16:14;;;;;;;37.33;24.02;;;;;;;9.43;60.97;99832.09;5128998;27;20039;-69
2021/05/01 04:18:41;;;;;;;34.33;23.92;;;;;;;9.41;61.06;99830.53;5131557;27;20058;-70
2021/05/01 04:21:08;;;;;;;37.67;25.95;;;;;;;9.40;61.10;99821.78;5134007;27;20065;-70
2021/05/01 04:23:34;;;;;;;39.42;25.52;;;;;;;9.35;61.20;99827.41;5130956;27;20049;-69
2021/05/01 04:26:01;;;;;;;41.65;26.02;;;;;;;9.41;61.14;99828.72;5150138;27;20071;-69
2021/05/01 04:28:28;;;;;;;40.95;24.48;;;;;;;9.49;60.92;99830.78;5150656;27;20042;-71
2021/05/01 04:30:56;;;;;;;38.78;24.58;;;;;;;9.51;60.81;99834.16;5153139;27;20042;-71
2021/05/01 04:33:22;;;;;;;41.80;27.48;;;;;;;9.52;60.94;99836.66;5150886;27;20047;-74
2021/05/01 04:35:49;;;;;;;36.45;24.77;;;;;;;9.55;60.73;99838.25;5151769;27;20046;-75
2021/05/01 04:38:15;;;;;;;33.20;22.35;;;;;;;9.55;60.67;99838.25;5150723;27;20043;-70
2021/05/01 04:40:42;;;;;;;34.63;23.95;;;;;;;9.61;60.57;99834.31;5151399;27;20076;-70
2021/05/01 04:43:10;;;;;;;40.08;24.88;;;;;;;9.68;60.48;99820.53;5150753;27;20458;-71
2021/05/01 04:45:36;;;;;;;37.22;24.00;;;;;;;9.70;60.37;99831.81;5148268;27;20047;-73
2021/05/01 04:48:05;;;;;;;33.85;23.80;;;;;;;9.77;60.28;99830.38;5152318;27;20051;-73
2021/05/01 04:50:32;;;;;;;32.38;21.42;;;;;;;9.90;59.66;99838.22;5149638;27;20743;-71
2021/05/01 04:52:58;;;;;;;33.53;21.10;;;;;;;10.02;59.77;99849.63;5149508;27;20055;-69
2021/05/01 04:55:26;;;;;;;35.10;21.67;;;;;;;10.10;59.59;99851.66;5149757;27;20523;-71
2021/05/01 04:57:53;;;;;;;36.17;23.27;;;;;;;10.20;59.39;99854.47;5149959;27;20089;-75
2021/05/01 05:00:21;;;;;;;45.22;28.50;;;;;;;10.21;59.50;99851.69;5149419;27;20467;-73
2021/05/01 05:02:49;;;;;;;40.13;28.83;;;;;;;10.18;59.64;99859.84;5150942;27;20042;-73
2021/05/01 05:05:18;;;;;;;41.22;28.52;;;;;;;10.09;59.72;99864.03;5150352;27;20085;-72
2021/05/01 05:07:44;;;;;;;40.28;27.42;;;;;;;10.09;59.50;99863.19;5149731;27;20050;-70
2021/05/01 05:10:14;;;;;;;38.30;26.85;;;;;;;10.27;59.37;99863.59;5150001;27;20043;-71
2021/05/01 05:12:40;;;;;;;35.80;23.90;;;;;;;10.56;58.63;99863.97;5149064;27;20068;-71
2021/05/01 05:15:08;;;;;;;32.35;22.20;;;;;;;10.76;58.09;99865.03;5148038;27;20049;-72
2021/05/01 05:17:34;;;;;;;34.53;23.13;;;;;;;11.00;57.68;99870.19;5149724;27;20577;-72
2021/05/01 05:20:01;;;;;;;38.08;25.52;;;;;;;11.17;57.37;99863.50;5155126;27;20126;-72
2021/05/01 05:22:28;;;;;;;32.95;23.48;;;;;;;11.22;57.28;99866.63;5149377;27;20650;-72
2021/05/01 05:24:55;;;;;;;32.47;23.73;;;;;;;11.19;57.40;99866.88;5150650;27;20042;-73
2021/05/01 05:27:21;;;;;;;34.22;23.10;;;;;;;11.25;57.29;99863.75;5148077;27;20087;-73
2021/05/01 05:29:51;;;;;;;30.30;21.75;;;;;;;11.32;57.38;99863.22;5148873;27;20057;-74
2021/05/01 05:32:18;;;;;;;35.50;23.83;;;;;;;11.34;57.28;99856.00;5148975;27;20081;-73
2021/05/01 05:34:45;;;;;;;36.03;24.70;;;;;;;11.19;57.36;99856.28;5149256;27;20049;-73
2021/05/01 05:37:12;;;;;;;34.45;22.65;;;;;;;11.13;57.65;99854.16;5149265;27;20051;-72
2021/05/01 05:39:39;;;;;;;32.60;22.58;;;;;;;11.12;57.91;99852.47;5148171;27;20501;-74
2021/05/01 05:42:07;;;;;;;40.42;27.42;;;;;;;11.17;57.79;99854.75;5149148;27;20117;-73
2021/05/01 05:44:34;;;;;;;36.17;23.63;;;;;;;11.18;57.80;99859.06;5150650;27;20085;-76
2021/05/01 05:47:01;;;;;;;34.40;21.95;;;;;;;11.09;58.04;99858.84;5154214;27;20049;-77
2021/05/01 05:49:28;;;;;;;34.33;25.13;;;;;;;11.07;58.24;99852.00;5155745;27;20061;-74
2021/05/01 05:51:54;;;;;;;36.58;24.60;;;;;;;11.02;58.40;99856.81;5152298;27;20043;-72
2021/05/01 05:54:21;;;;;;;39.85;27.73;;;;;;;11.17;58.44;99858.22;5149558;27;20038;-70
2021/05/01 05:56:48;;;;;;;35.40;23.55;;;;;;;11.29;57.92;99870.44;5149133;27;20102;-72
2021/05/01 05:59:15;;;;;;;39.60;25.40;;;;;;;11.38;57.73;99876.78;5147353;27;20506;-69
2021/05/01 06:01:46;;;;;;;36.72;26.92;;;;;;;11.35;57.96;99881.50;5146840;27;20038;-73
2021/05/01 06:04:16;;;;;;;36.50;25.40;;;;;;;11.33;58.13;99878.97;5146553;27;20126;-74
2021/05/01 06:06:53;;;;;;;35.40;24.35;;;;;;;11.50;57.58;99885.50;5153126;27;20188;-78
2021/05/01 06:09:20;;;;;;;39.10;24.80;;;;;;;11.43;57.90;99890.47;5157776;27;20046;-75
2021/05/01 06:11:50;;;;;;;33.53;22.85;;;;;;;11.57;57.61;99891.97;5155384;27;20043;-74
2021/05/01 06:14:19;;;;;;;34.00;23.88;;;;;;;11.73;56.98;99894.19;5155144;27;20716;-74
2021/05/01 06:16:46;;;;;;;37.13;26.27;;;;;;;11.77;57.01;99892.13;5154841;27;20122;-78
2021/05/01 06:19:13;;;;;;;33.83;23.27;;;;;;;11.89;56.89;99896.41;5158260;27;20067;-74
2021/05/01 06:21:40;;;;;;;34.00;23.40;;;;;;;12.02;56.28;99896.25;5153846;27;20214;-78
2021/05/01 06:24:09;;;;;;;36.33;24.38;;;;;;;12.18;56.09;99890.50;5150704;27;20050;-75
2021/05/01 06:26:38;;;;;;;37.10;25.05;;;;;;;12.33;55.81;99899.75;5138198;27;20125;-73
2021/05/01 06:29:07;;;;;;;32.90;23.73;;;;;;;12.35;55.76;99889.91;5156520;27;20121;-79
2021/05/01 06:31:37;;;;;;;39.53;24.75;;;;;;;12.27;56.15;99887.06;5150532;27;20065;-79
2021/05/01 06:34:05;;;;;;;36.35;25.45;;;;;;;12.06;56.59;99897.66;5153634;27;20542;-76
2021/05/01 06:36:33;;;;;;;32.17;23.23;;;;;;;11.95;56.79;99895.91;5151551;27;20054;-78
2021/05/01 06:39:03;;;;;;;39.67;25.60;;;;;;;11.99;56.56;99892.06;5159896;27;20125;-76
2021/05/01 06:41:39;;;;;;;33.60;23.67;;;;;;;12.17;56.22;99894.09;5152700;27;20047;-81
2021/05/01 06:44:13;;;;;;;34.28;23.95;;;;;;;12.18;56.13;99885.19;5147607;27;20066;-80
2021/05/01 06:46:42;;;;;;;34.55;22.33;;;;;;;12.16;56.26;99887.13;5158245;27;20481;-77
2021/05/01 06:49:13;;;;;;;33.60;22.77;;;;;;;12.16;56.37;99881.84;5151159;27;20058;-75
2021/05/01 06:51:41;;;;;;;37.75;26.13;;;;;;;12.21;56.33;99885.78;5153466;27;20106;-74
2021/05/01 06:54:11;;;;;;;38.22;26.30;;;;;;;12.35;55.89;99879.31;5152916;27;20043;-78
2021/05/01 06:56:43;;;;;;;40.22;28.10;;;;;;;12.43;55.82;99876.81;5151356;27;20066;-78
2021/05/01 06:59:15;;;;;;;35.03;25.08;;;;;;;12.22;56.28;99876.00;5152725;27;20042;-76
2021/05/01 07:01:46;;;;;;;33.67;23.05;;;;;;;12.12;56.54;99875.97;5146462;27;20049;-75
2021/05/01 07:04:14;;;;;;;40.35;26.90;;;;;;;12.09;56.94;99873.56;5155381;27;20070;-77
2021/05/01 07:06:41;;;;;;;35.05;25.13;;;;;;;12.06;56.72;99868.53;5147134;27;20047;-75
2021/05/01 07:09:10;;;;;;;36.78;25.73;;;;;;;12.01;57.03;99868.94;5149148;27;20099;-76
2021/05/01 07:11:36;;;;;;;39.58;25.20;;;;;;;12.05;56.99;99873.00;5137521;27;20218;-77
2021/05/01 07:14:04;;;;;;;35.50;24.65;;;;;;;11.86;57.92;99870.19;5151372;27;20058;-79
2021/05/01 07:16:31;;;;;;;37.83;27.35;;;;;;;11.77;58.34;99865.66;5156563;27;20166;-78
2021/05/01 07:19:07;;;;;;;33.60;24.13;;;;;;;11.72;58.44;99868.72;5151697;27;20034;-78
2021/05/01 07:21:34;;;;;;;34.60;23.98;;;;;;;11.72;58.42;99859.91;5153600;27;20078;-79
2021/05/01 07:24:04;;;;;;;38.63;26.50;;;;;;;11.74;58.63;99866.78;5150710;27;20543;-78
2021/05/01 07:26:36;;;;;;;40.95;28.00;;;;;;;11.78;58.75;99868.19;5148421;27;20050;-77
2021/05/01 07:29:05;;;;;;;45.47;31.92;;;;;;;11.89;58.60;99861.16;5148312;27;20043;-78
2021/05/01 07:31:33;;;;;;;39.10;29.42;;;;;;;11.96;58.46;99865.84;5159218;27;20053;-79
2021/05/01 07:34:02;;;;;;;41.10;26.90;;;;;;;11.96;58.46;99855.25;5156277;27;20034;-77
2021/05/01 07:36:35;;;;;;;38.22;27.38;;;;;;;11.94;58.81;99856.34;5154356;27;20107;-78
2021/05/01 07:39:03;;;;;;;36.47;24.35;;;;;;;11.92;58.68;99867.06;5155069;27;20043;-79
2021/05/01 07:41:30;;;;;;;39.05;27.48;;;;;;;11.98;58.49;99861.25;5149536;27;20051;-78
2021/05/01 07:43:59;;;;;;;38.65;28.50;;;;;;;12.02;59.07;99860.00;5150091;27;20039;-78
2021/05/01 07:46:29;;;;;;;39.00;25.40;;;;;;;12.12;58.58;99856.59;5151904;27;20106;-79
2021/05/01 07:48:57;;;;;;;38.28;24.48;;;;;;;12.04;58.68;99858.06;5149219;27;20059;-77
2021/05/01 07:51:23;;;;;;;34.03;23.17;;;;;;;11.85;59.09;99856.13;5150961;27;20038;-78
2021/05/01 07:53:51;;;;;;;36.08;24.75;;;;;;;11.76;59.49;99854.25;5149721;27;20139;-78
2021/05/01 07:56:18;;;;;;;34.20;25.17;;;;;;;11.71;59.54;99855.63;5148327;27;20053;-79
2021/05/01 07:58:49;;;;;;;36.67;23.70;;;;;;;11.75;59.58;99857.03;5153021;27;20046;-77
2021/05/01 08:01:17;;;;;;;33.95;25.65;;;;;;;11.72;59.71;99858.13;5117685;27;20043;-78
2021/05/01 08:03:44;;;;;;;32.25;22.60;;;;;;;11.71;59.62;99874.13;5152788;27;20501;-77
2021/05/01 08:06:12;;;;;;;33.28;23.10;;;;;;;11.71;59.76;99864.38;5149762;27;20042;-77
2021/05/01 08:08:38;;;;;;;33.13;23.20;;;;;;;11.77;59.69;99865.66;5128577;27;20042;-78
2021/05/01 08:11:05;;;;;;;35.97;23.40;;;;;;;11.86;59.58;99855.13;5150426;27;20065;-77
2021/05/01 08:13:31;;;;;;;30.15;21.17;;;;;;;11.88;59.44;99859.47;5147847;27;20064;-78
2021/05/01 08:15:58;;;;;;;38.28;25.20;;;;;;;11.92;59.37;99868.84;5147608;27;20121;-78
2021/05/01 08:18:25;;;;;;;32.78;23.02;;;;;;;11.88;59.38;99870.91;5148732;27;20039;-78
2021/05/01 08:20:51;;;;;;;35.45;23.92;;;;;;;11.85;59.52;99869.34;5146749;27;20058;-78
2021/05/01 08:23:19;;;;;;;36.67;24.48;;;;;;;11.95;59.37;99881.84;5150804;27;20124;-78
2021/05/01 08:25:46;;;;;;;31.08;21.52;;;;;;;11.96;59.38;99889.66;5147175;27;20049;-80
2021/05/01 08:28:12;;;;;;;32.28;21.83;;;;;;;11.91;59.31;99878.63;5149147;27;20050;-78
2021/05/01 08:30:39;;;;;;;36.05;23.92;;;;;;;11.80;59.86;99876.84;5149862;27;20058;-78
2021/05/01 08:33:06;;;;;;;33.67;22.55;;;;;;;11.79;59.77;99874.31;5152560;27;20054;-78
2021/05/01 08:35:33;;;;;;;35.42;23.55;;;;;;;11.72;60.06;99867.84;5117125;28;20123;-77
2021/05/01 08:37:59;;;;;;;33.78;23.48;;;;;;;11.73;60.32;99880.13;5152765;27;20053;-78
2021/05/01 08:40:27;;;;;;;34.20;22.95;;;;;;;11.78;60.24;99875.31;5150798;27;20046;-81
2021/05/01 08:42:53;;;;;;;30.20;22.08;;;;;;;11.87;60.22;99877.19;5149437;27;20046;-77
2021/05/01 08:45:24;;;;;;;37.83;24.25;;;;;;;11.82;60.23;99882.00;5161064;27;20055;-77
2021/05/01 08:47:50;;;;;;;37.58;25.30;;;;;;;11.80;60.42;99870.72;5159898;27;20087;-77
2021/05/01 08:50:40;;;;;;;37.33;26.02;;;;;;;11.92;60.40;99882.09;5162900;27;20122;-77
2021/05/01 08:53:08;;;;;;;37.28;25.50;;;;;;;12.03;59.88;99882.06;5142380;27;20094;-77
2021/05/01 08:55:38;;;;;;;40.72;26.88;;;;;;;12.10;59.95;99883.22;5160338;27;20088;-79
2021/05/01 08:58:09;;;;;;;37.88;27.90;;;;;;;12.14;59.86;99887.25;5149100;27;20054;-74
2021/05/01 09:00:38;;;;;;;43.05;29.02;;;;;;;12.19;59.95;99884.22;5150665;27;20654;-76
2021/05/01 09:03:07;;;;;;;39.92;28.17;;;;;;;12.18;59.95;99883.38;5125106;27;20043;-75
2021/05/01 09:05:36;;;;;;;41.78;31.15;;;;;;;12.14;60.17;99884.63;5150353;27;20057;-75
2021/05/01 09:08:04;;;;;;;45.17;30.77;;;;;;;12.09;60.39;99883.34;5149648;27;20081;-73
2021/05/01 09:10:42;;;;;;;35.92;25.98;;;;;;;12.12;60.37;99886.56;5149564;27;20054;-74
2021/05/01 09:13:17;;;;;;;37.72;27.95;;;;;;;12.22;60.30;99886.59;5145768;27;20460;-73
2021/05/01 09:16:04;;;;;;;40.42;27.75;;;;;;;12.35;59.89;99881.97;5146654;27;20038;-74
2021/05/01 09:18:45;;;;;;;43.95;26.35;;;;;;;12.46;59.91;99888.97;5149094;27;20646;-74
2021/05/01 09:21:13;;;;;;;38.22;29.00;;;;;;;12.35;60.17;99881.97;5151726;27;20057;-75
2021/05/01 09:23:39;;;;;;;38.30;26.95;;;;;;;12.48;59.93;99884.38;5151690;27;20063;-75
2021/05/01 09:26:07;;;;;;;41.75;29.52;;;;;;;12.59;59.56;99891.41;5152076;27;20043;-77
2021/05/01 09:28:42;;;;;;;44.78;30.63;;;;;;;12.55;60.03;99889.97;5156431;27;20046;-76
2021/05/01 09:31:10;;;;;;;38.22;30.05;;;;;;;12.69;59.60;99879.00;5154203;27;20297;-75
2021/05/01 09:33:38;;;;;;;45.17;30.02;;;;;;;12.75;59.49;99889.09;5154554;27;20035;-75
2021/05/01 09:36:11;;;;;;;45.20;30.05;;;;;;;12.73;59.79;99877.78;5161440;27;20039;-78
2021/05/01 09:38:41;;;;;;;35.50;26.25;;;;;;;12.86;59.23;99884.66;5158487;27;20072;-77
2021/05/01 09:41:18;;;;;;;38.25;25.95;;;;;;;12.96;59.26;99885.50;5160136;27;20051;-78
2021/05/01 09:44:04;;;;;;;38.20;26.45;;;;;;;13.03;59.16;99870.72;5135420;27;20046;-75
2021/05/01 09:46:42;;;;;;;37.53;24.92;;;;;;;13.09;58.74;99875.50;5149766;27;20130;-75
2021/05/01 09:49:10;;;;;;;42.33;27.98;;;;;;;13.22;58.73;99883.22;5153009;27;20043;-76
2021/05/01 09:51:44;;;;;;;42.40;28.92;;;;;;;13.25;58.69;99882.91;5151138;27;20106;-73
2021/05/01 09:54:12;;;;;;;41.83;32.83;;;;;;;13.28;58.37;99885.28;5151028;27;20046;-75
2021/05/01 09:56:41;;;;;;;35.22;26.63;;;;;;;13.30;58.27;99887.81;5151691;27;20098;-75
2021/05/01 09:59:08;;;;;;;39.72;28.38;;;;;;;13.22;58.31;99890.31;5149446;27;20254;-77
2021/05/01 10:01:35;;;;;;;42.70;29.73;;;;;;;13.33;58.00;99892.88;5149689;27;20053;-75
2021/05/01 10:04:18;;;;;;;34.95;25.38;;;;;;;13.30;58.17;99901.06;5156163;27;20129;-76
2021/05/01 10:06:54;;;;;;;32.05;23.52;;;;;;;13.30;58.09;99896.59;5142520;27;20044;-77
2021/05/01 10:09:23;;;;;;;35.38;25.73;;;;;;;13.13;58.33;99887.50;5144959;27;20047;-76
2021/05/01 10:11:52;;;;;;;41.88;28.50;;;;;;;12.93;58.82;99897.22;5149362;27;20195;-77
2021/05/01 10:14:34;;;;;;;36.20;26.05;;;;;;;12.68;59.45;99892.41;5144469;27;20631;-77
2021/05/01 10:17:01;;;;;;;42.25;31.20;;;;;;;12.50;59.79;99889.56;5147553;27;20161;-77
2021/05/01 10:19:44;;;;;;;40.25;27.45;;;;;;;12.22;60.63;99891.91;5145956;27;20043;-77
2021/05/01 10:22:23;;;;;;;45.00;30.55;;;;;;;12.07;60.92;99893.22;5148100;27;20150;-76
2021/05/01 10:24:50;;;;;;;44.05;31.25;;;;;;;11.91;61.56;99891.03;5147451;27;20048;-76
2021/05/01 10:27:19;;;;;;;42.20;29.40;;;;;;;11.83;61.72;99887.19;5147752;27;20091;-75
2021/05/01 10:29:46;;;;;;;44.17;31.15;;;;;;;11.79;61.85;99875.19;5155590;27;20051;-76
2021/05/01 10:32:18;;;;;;;42.80;29.80;;;;;;;11.84;61.80;99872.13;5148502;27;20058;-77
2021/05/01 10:34:48;;;;;;;47.90;32.22;;;;;;;11.72;62.30;99873.16;5146786;27;20039;-75
2021/05/01 10:37:18;;;;;;;43.08;28.30;;;;;;;11.69;62.51;99873.44;5152798;27;20070;-79
2021/05/01 10:39:47;;;;;;;48.22;32.88;;;;;;;11.67;62.82;99870.91;5159506;27;20043;-78
2021/05/01 10:42:15;;;;;;;47.85;33.78;;;;;;;11.78;62.72;99873.50;5159340;27;20049;-77
2021/05/01 10:44:57;;;;;;;49.97;33.15;;;;;;;11.81;62.90;99867.09;5152408;27;20043;-78
2021/05/01 10:47:24;;;;;;;47.60;32.45;;;;;;;11.87;62.67;99866.59;5148162;27;20042;-78
2021/05/01 10:49:50;;;;;;;52.75;33.58;;;;;;;11.76;62.92;99856.06;5148508;27;20053;-77
2021/05/01 10:52:19;;;;;;;53.85;31.83;;;;;;;11.69;63.55;99846.97;5147527;27;20054;-76
2021/05/01 10:55:00;;;;;;;47.15;30.67;;;;;;;11.67;63.72;99841.81;5150595;27;20805;-82
2021/05/01 10:57:27;;;;;;;41.60;29.10;;;;;;;11.52;63.70;99840.44;5156357;27;20068;-79
2021/05/01 11:00:06;;;;;;;47.10;33.33;;;;;;;11.39;64.33;99840.59;5164971;27;20093;-77
2021/05/01 11:02:35;;;;;;;48.00;33.45;;;;;;;11.29;64.37;99838.72;5162272;27;20031;-77
2021/05/01 11:05:04;;;;;;;54.22;36.60;;;;;;;11.23;64.67;99831.28;5160921;27;20214;-74
2021/05/01 11:07:46;;;;;;;48.10;33.30;;;;;;;11.20;64.79;99836.84;5163455;27;20031;-76
2021/05/01 11:10:15;;;;;;;48.47;28.70;;;;;;;11.19;64.73;99834.31;5161896;27;20130;-78
2021/05/01 11:12:50;;;;;;;47.35;32.85;;;;;;;11.17;65.04;99837.09;5167561;27;20138;-78
2021/05/01 11:15:21;;;;;;;46.05;31.70;;;;;;;11.18;64.92;99837.91;5163738;27;20031;-75
2021/05/01 11:17:53;;;;;;;49.88;32.78;;;;;;;11.29;65.04;99824.69;5162058;27;20053;-77
2021/05/01 11:20:22;;;;;;;53.22;33.08;;;;;;;11.40;64.84;99823.78;5158589;27;20045;-78
2021/05/01 11:22:52;;;;;;;53.95;35.35;;;;;;;11.55;64.79;99827.78;5161478;27;20043;-77
2021/05/01 11:25:22;;;;;;;46.97;33.50;;;;;;;11.68;64.64;99822.31;5161182;27;20038;-77
2021/05/01 11:27:52;;;;;;;49.42;34.15;;;;;;;11.72;64.93;99814.94;5166483;27;20039;-77